Time;durP1;ratioP1;P1;durP2;ratioP2;P2;SDS_P1;SDS_P2;PMS_P1;PMS_P2;Temp;Humidity;BMP_temperature;BMP_pressure;BME280_temperature;BME280_humidity;BME280_pressure;Samples;Min_cycle;Max_cycle;Signal;HPM_P1;HPM_P2
2023/01/04 00:00:07;;;;;;;88.63;79.63;;;;;;;9.34;67.58;100201.91;5091882;28;20016;-47
2023/01/04 00:02:32;;;;;;;106.30;95.32;;;;;;;9.42;68.92;100188.00;5091998;28;20047;-48
2023/01/04 00:04:58;;;;;;;84.03;75.13;;;;;;;9.77;69.11;100184.41;5090443;28;20102;-48
2023/01/04 00:07:24;;;;;;;54.13;48.38;;;;;;;10.04;68.20;100193.00;5091827;28;20431;-48
2023/01/04 00:09:49;;;;;;;164.25;147.50;;;;;;;10.18;67.83;100184.53;5091789;28;20033;-48
2023/01/04 00:12:15;;;;;;;88.93;79.50;;;;;;;10.29;67.17;100181.59;5091703;28;20028;-48
2023/01/04 00:14:40;;;;;;;125.80;113.65;;;;;;;10.32;67.14;100178.69;5090404;28;20029;-48
2023/01/04 00:17:06;;;;;;;118.35;107.28;;;;;;;10.26;67.32;100183.72;5090382;28;20036;-48
2023/01/04 00:19:32;;;;;;;119.93;107.60;;;;;;;10.07;67.08;100174.34;5091723;28;20035;-48
2023/01/04 00:21:57;;;;;;;16.90;13.32;;;;;;;9.89;67.25;100179.69;5091730;28;20025;-48
2023/01/04 00:24:23;;;;;;;63.72;57.47;;;;;;;9.51;67.37;100177.41;5091583;28;20535;-47
2023/01/04 00:26:49;;;;;;;59.30;53.25;;;;;;;9.12;67.70;100177.03;5091411;28;20089;-48
2023/01/04 00:29:14;;;;;;;61.60;54.90;;;;;;;8.73;68.30;100173.00;5091654;28;20536;-48
2023/01/04 00:31:40;;;;;;;113.15;102.13;;;;;;;8.78;70.23;100180.38;5090308;28;20440;-48
2023/01/04 00:34:06;;;;;;;15.98;14.27;;;;;;;8.77;69.42;100173.50;5090250;28;20486;-48
2023/01/04 00:36:32;;;;;;;31.58;18.45;;;;;;;8.29;69.26;100170.28;5090233;28;20074;-48
2023/01/04 00:39:06;;;;;;;19.40;12.95;;;;;;;7.83;70.34;100168.63;5090268;28;20060;-48
2023/01/04 00:41:49;;;;;;;24.67;18.52;;;;;;;7.54;71.30;100178.25;5074480;28;20114;-48
2023/01/04 00:44:15;;;;;;;18.13;15.90;;;;;;;7.37;72.03;100171.19;5091481;28;20024;-48
2023/01/04 00:46:42;;;;;;;27.00;19.95;;;;;;;7.23;72.21;100175.06;5091465;28;20051;-48
2023/01/04 00:49:09;;;;;;;64.15;52.45;;;;;;;7.17;73.14;100178.25;5090081;28;20409;-48
2023/01/04 00:51:37;;;;;;;57.38;44.38;;;;;;;7.21;74.59;100182.22;5090061;28;20107;-48
2023/01/04 00:54:05;;;;;;;21.98;16.65;;;;;;;7.36;74.54;100178.19;5092389;28;20264;-48
2023/01/04 00:56:31;;;;;;;89.75;78.57;;;;;;;7.42;75.12;100182.00;5095161;28;20020;-48
2023/01/04 00:58:59;;;;;;;37.90;27.20;;;;;;;7.56;75.54;100185.94;5095109;28;20529;-48
2023/01/04 01:01:26;;;;;;;62.85;50.88;;;;;;;7.43;74.51;100181.06;5094961;28;20036;-48
2023/01/04 01:03:54;;;;;;;27.17;20.98;;;;;;;7.29;75.00;100189.34;5093584;28;20020;-48
2023/01/04 01:06:20;;;;;;;88.30;78.97;;;;;;;7.38;76.38;100186.72;5094921;28;20059;-48
2023/01/04 01:08:46;;;;;;;23.60;17.70;;;;;;;7.69;76.20;100196.09;5094945;28;20047;-48
2023/01/04 01:11:11;;;;;;;104.03;89.53;;;;;;;7.93;76.36;100183.31;5093487;28;20486;-48
2023/01/04 01:13:38;;;;;;;201.70;182.32;;;;;;;8.30;75.94;100190.22;5094768;28;20067;-48
2023/01/04 01:16:06;;;;;;;198.32;178.27;;;;;;;8.58;75.23;100191.00;5094774;28;20024;-48
2023/01/04 01:18:33;;;;;;;40.63;32.83;;;;;;;8.86;74.36;100188.31;5093390;28;20030;-48
2023/01/04 01:20:59;;;;;;;23.55;17.67;;;;;;;8.71;72.36;100197.66;5093340;28;20053;-48
2023/01/04 01:23:25;;;;;;;21.15;13.95;;;;;;;8.27;72.07;100190.53;5094643;28;20040;-48
2023/01/04 01:25:51;;;;;;;19.60;15.00;;;;;;;7.85;72.28;100195.44;5094500;28;20028;-48
2023/01/04 01:28:16;;;;;;;78.00;69.80;;;;;;;7.52;72.89;100189.81;5094290;28;20456;-48
2023/01/04 01:30:42;;;;;;;338.05;305.17;;;;;;;7.53;75.17;100188.88;5094511;28;20107;-48
2023/01/04 01:33:09;;;;;;;449.80;399.58;;;;;;;7.79;74.72;100189.84;5093055;28;20028;-48
2023/01/04 01:35:34;;;;;;;71.07;51.42;;;;;;;7.74;73.88;100199.06;5094396;28;20031;-48
2023/01/04 01:38:00;;;;;;;29.98;19.63;;;;;;;7.62;73.83;100208.06;5093141;28;20599;-48
2023/01/04 01:40:27;;;;;;;35.55;19.98;;;;;;;7.54;73.89;100203.56;5094270;28;20024;-48
2023/01/04 01:42:52;;;;;;;25.45;16.08;;;;;;;7.45;73.99;100207.03;5092922;28;20024;-47
2023/01/04 01:45:23;;;;;;;26.17;20.10;;;;;;;7.31;74.26;100209.13;5094095;28;20049;-48
2023/01/04 01:47:50;;;;;;;24.85;17.45;;;;;;;7.21;73.95;100203.09;5092865;28;20520;-47
2023/01/04 01:50:31;;;;;;;83.47;68.47;;;;;;;7.04;73.97;100199.41;5092769;28;20044;-48
2023/01/04 01:52:59;;;;;;;141.10;117.15;;;;;;;7.23;75.79;100205.59;5092811;28;20031;-47
2023/01/04 01:55:27;;;;;;;1803.85;860.15;;;;;;;7.83;75.80;100205.22;5094190;28;20092;-48
2023/01/04 01:57:54;;;;;;;291.50;152.70;;;;;;;7.94;74.18;100205.84;5092852;28;20098;-48
2023/01/04 02:00:20;;;;;;;534.35;288.48;;;;;;;7.71;73.88;100205.41;5092574;28;20187;-48
2023/01/04 02:03:12;;;;;;;986.53;634.63;;;;;;;7.67;75.19;100198.03;5092529;28;20638;-48
2023/01/04 02:05:38;;;;;;;358.20;250.20;;;;;;;7.98;74.52;100201.97;5092744;28;20050;-48
2023/01/04 02:08:04;;;;;;;622.97;527.05;;;;;;;8.11;74.66;100204.25;5092398;28;20048;-48
2023/01/04 02:10:30;;;;;;;228.75;203.45;;;;;;;8.49;74.69;100209.41;5093735;28;20016;-48
2023/01/04 02:12:57;;;;;;;249.10;223.52;;;;;;;8.79;73.71;100211.66;5092395;28;20051;-48
2023/01/04 02:15:28;;;;;;;166.32;148.95;;;;;;;9.06;72.74;100211.69;5092262;28;20536;-48
2023/01/04 02:18:07;;;;;;;201.95;183.05;;;;;;;9.05;71.43;100207.41;5093605;28;20031;-48
2023/01/04 02:20:43;;;;;;;227.55;204.57;;;;;;;8.78;71.27;100215.22;5092218;28;20063;-48
2023/01/04 02:23:21;;;;;;;125.35;88.72;;;;;;;8.75;71.59;100218.16;5093513;28;20497;-48
2023/01/04 02:25:55;;;;;;;133.95;84.75;;;;;;;8.55;71.15;100220.13;5092051;28;20035;-48
2023/01/04 02:28:24;;;;;;;295.92;266.55;;;;;;;8.59;73.12;100218.84;5091879;28;20055;-48
2023/01/04 02:30:56;;;;;;;289.92;261.23;;;;;;;8.96;72.92;100207.34;5093294;28;20016;-48
2023/01/04 02:33:36;;;;;;;84.38;66.00;;;;;;;9.19;71.92;100212.94;5091958;28;20031;-48
2023/01/04 02:36:08;;;;;;;119.57;95.75;;;;;;;9.42;71.55;100204.56;5093216;28;20035;-48
2023/01/04 02:38:47;;;;;;;122.10;108.90;;;;;;;9.54;70.49;100203.31;5093204;28;20109;-48
2023/01/04 02:41:30;;;;;;;86.28;74.25;;;;;;;9.65;69.73;100199.59;5093404;28;20047;-48
2023/01/04 02:50:31;;;;;;;235.23;199.55;;;;;;;8.87;68.67;100208.25;5093205;28;20071;-48
2023/01/04 02:53:16;;;;;;;216.35;192.88;;;;;;;8.71;69.74;100205.50;5091603;28;20604;-48
2023/01/04 02:56:16;;;;;;;171.20;109.33;;;;;;;8.97;70.62;100202.94;5092919;28;20039;-48
2023/01/04 02:59:00;;;;;;;302.27;271.27;;;;;;;9.17;70.33;100204.38;5092821;28;20286;-48
2023/01/04 03:07:40;;;;;;;120.28;100.32;;;;;;;9.47;68.99;100204.09;5092939;28;20058;-48
2023/01/04 03:10:18;;;;;;;151.15;75.30;;;;;;;9.27;68.12;100204.28;5091292;28;20024;-48
2023/01/04 03:12:53;;;;;;;365.35;260.95;;;;;;;8.84;68.49;100210.38;5092602;28;20055;-48
2023/01/04 03:15:29;;;;;;;587.10;502.40;;;;;;;8.47;69.38;100208.72;5091212;28;20482;-48
2023/01/04 03:17:58;;;;;;;134.73;84.15;;;;;;;8.25;70.18;100207.31;5092229;28;20032;-48
2023/01/04 03:20:30;;;;;;;138.95;105.43;;;;;;;8.14;71.35;100203.13;5090961;28;20040;-48
2023/01/04 03:37:18;;;;;;;147.50;129.32;;;;;;;8.24;71.11;100198.66;5092145;28;20242;-48
2023/01/04 03:48:43;;;;;;;40.53;28.95;;;;;;;8.25;71.57;100196.88;5092275;28;20207;-48
2023/01/04 03:51:20;;;;;;;38.03;32.97;;;;;;;8.26;71.39;100199.34;5091014;28;20036;-48
2023/01/04 03:54:16;;;;;;;46.53;40.78;;;;;;;8.27;71.87;100194.94;5090827;28;20273;-48
2023/01/04 03:56:44;;;;;;;78.30;65.75;;;;;;;8.71;71.38;100200.28;5091969;28;20508;-48
2023/01/04 03:59:11;;;;;;;25.92;15.70;;;;;;;8.82;70.12;100191.38;5091885;28;20036;-48
2023/01/04 04:01:39;;;;;;;43.85;14.50;;;;;;;8.65;69.46;100193.84;5091896;28;20027;-48
2023/01/04 04:09:34;;;;;;;61.63;38.80;;;;;;;8.50;71.75;100196.19;5091836;28;20090;-48
2023/01/04 04:11:59;;;;;;;46.08;27.95;;;;;;;8.50;71.06;100188.31;5091675;28;20020;-48
2023/01/04 04:14:25;;;;;;;77.10;18.20;;;;;;;8.54;70.73;100184.44;5091778;28;20039;-48
2023/01/04 04:16:51;;;;;;;49.95;35.40;;;;;;;8.61;70.78;100179.41;5091724;28;20016;-48
2023/01/04 04:19:16;;;;;;;41.28;28.38;;;;;;;8.87;70.72;100176.84;5090437;28;20055;-48
2023/01/04 04:21:42;;;;;;;35.95;23.05;;;;;;;9.16;70.28;100181.00;5091703;28;20020;-48
2023/01/04 04:24:16;;;;;;;61.53;43.45;;;;;;;9.50;69.69;100174.97;5091556;28;20034;-48
2023/01/04 04:26:42;;;;;;;32.45;22.02;;;;;;;9.56;68.32;100169.91;5091436;28;20061;-48
2023/01/04 04:29:07;;;;;;;21.58;14.38;;;;;;;9.36;67.95;100165.88;5092816;28;20456;-48
2023/01/04 04:31:33;;;;;;;27.30;17.35;;;;;;;9.23;69.01;100176.75;5094292;28;20032;-48
2023/01/04 04:33:58;;;;;;;30.95;17.65;;;;;;;9.31;68.39;100184.66;5094268;28;20073;-48
2023/01/04 04:36:24;;;;;;;38.38;14.80;;;;;;;9.16;68.24;100178.38;5094292;28;20474;-48
2023/01/04 04:38:49;;;;;;;56.08;26.83;;;;;;;8.91;69.26;100172.94;5095527;28;20016;-47
2023/01/04 04:43:59;;;;;;;87.85;18.10;;;;;;;8.86;70.06;100169.97;5095349;28;20039;-48
2023/01/04 04:46:25;;;;;;;50.30;19.05;;;;;;;8.66;70.46;100178.97;5094072;28;20028;-48
2023/01/04 04:48:51;;;;;;;84.70;19.05;;;;;;;8.47;70.98;100178.19;5095277;28;20421;-48
2023/01/04 04:51:16;;;;;;;86.80;20.50;;;;;;;8.24;71.36;100182.97;5095229;28;20028;-48
2023/01/04 04:53:42;;;;;;;140.18;20.60;;;;;;;8.04;72.14;100186.69;5095463;28;20413;-48
2023/01/04 04:56:09;;;;;;;56.38;36.88;;;;;;;7.94;73.91;100181.50;5095058;28;20470;-48
2023/01/04 04:58:35;;;;;;;86.07;28.65;;;;;;;8.28;74.36;100184.31;5095144;28;20399;-48
2023/01/04 05:01:01;;;;;;;70.70;43.92;;;;;;;8.68;74.30;100184.88;5095066;28;20024;-48
2023/01/04 05:03:27;;;;;;;46.35;19.35;;;;;;;8.97;73.09;100187.22;5095042;28;20032;-48
2023/01/04 05:05:53;;;;;;;53.25;29.90;;;;;;;9.06;72.13;100195.97;5093564;28;20035;-48
2023/01/04 05:08:18;;;;;;;63.72;36.97;;;;;;;9.05;72.16;100200.38;5094964;28;20024;-48
2023/01/04 05:10:44;;;;;;;50.75;29.80;;;;;;;8.92;71.80;100192.13;5076682;28;20028;-48
2023/01/04 05:13:12;;;;;;;53.72;23.05;;;;;;;8.99;72.88;100191.34;5093658;28;20512;-48
2023/01/04 05:15:43;;;;;;;74.45;19.38;;;;;;;8.99;72.68;100196.59;5094840;28;20020;-48
2023/01/04 05:18:10;;;;;;;91.10;18.63;;;;;;;8.79;72.56;100190.72;5094778;28;20028;-48
2023/01/04 05:20:39;;;;;;;112.22;20.17;;;;;;;8.47;73.23;100206.94;5095072;28;20375;-48
2023/01/04 05:23:06;;;;;;;106.40;21.35;;;;;;;8.20;73.75;100210.41;5094732;28;20016;-47
2023/01/04 05:25:32;;;;;;;67.57;22.13;;;;;;;8.02;74.26;100206.94;5093207;28;20088;-48
2023/01/04 05:27:58;;;;;;;232.65;150.18;;;;;;;7.96;75.65;100209.13;5094362;28;20044;-48
2023/01/04 05:33:08;;;;;;;72.72;34.40;;;;;;;8.08;76.70;100220.22;5094475;28;20039;-48
2023/01/04 05:35:34;;;;;;;113.47;62.30;;;;;;;8.17;77.59;100218.56;5093419;28;20024;-48
2023/01/04 05:38:00;;;;;;;51.00;26.65;;;;;;;8.36;78.06;100213.19;5093097;28;20378;-48
2023/01/04 05:40:25;;;;;;;74.55;42.08;;;;;;;8.58;78.05;100211.13;5094270;28;20044;-48
2023/01/04 05:42:51;;;;;;;48.20;22.08;;;;;;;8.88;77.54;100216.97;5094308;28;20028;-47
2023/01/04 05:45:19;;;;;;;50.20;24.27;;;;;;;9.09;77.10;100211.38;5094176;28;20020;-48
2023/01/04 05:47:49;;;;;;;44.28;24.77;;;;;;;9.26;76.05;100220.19;5094226;28;20089;-48
2023/01/04 05:50:15;;;;;;;59.30;38.78;;;;;;;9.34;75.58;100220.22;5094382;28;20050;-48
2023/01/04 05:52:41;;;;;;;59.83;23.80;;;;;;;9.38;74.99;100217.16;5094128;28;20401;-48
2023/01/04 05:55:07;;;;;;;72.90;41.50;;;;;;;9.38;74.88;100214.53;5094017;28;20024;-47
2023/01/04 05:57:32;;;;;;;50.55;21.98;;;;;;;9.11;72.33;100205.00;5092739;28;20082;-47
2023/01/04 05:59:58;;;;;;;74.80;18.83;;;;;;;8.66;72.81;100202.53;5093973;28;20074;-47
2023/01/04 06:02:26;;;;;;;53.63;15.25;;;;;;;8.22;73.74;100197.19;5092615;28;20032;-48
2023/01/04 06:04:52;;;;;;;28.40;15.52;;;;;;;7.80;74.75;100201.91;5092472;28;20020;-48
2023/01/04 06:07:17;;;;;;;45.00;13.95;;;;;;;7.54;76.51;100195.72;5092455;28;20028;-48
2023/01/04 06:09:44;;;;;;;43.20;10.80;;;;;;;7.32;77.36;100202.91;5092471;28;20062;-48
2023/01/04 06:12:11;;;;;;;30.85;10.65;;;;;;;7.03;78.46;100197.78;5093635;28;20026;-47
2023/01/04 06:14:37;;;;;;;44.97;10.50;;;;;;;6.76;79.85;100198.47;5093661;28;20501;-47
2023/01/04 06:17:03;;;;;;;43.97;12.45;;;;;;;6.52;81.17;100202.34;5092399;28;20031;-46
2023/01/04 06:19:29;;;;;;;41.90;24.95;;;;;;;6.37;81.94;100209.72;5093528;28;20428;-46
2023/01/04 06:21:54;;;;;;;45.13;23.33;;;;;;;6.25;82.73;100210.00;5092192;28;20031;-46
2023/01/04 06:24:20;;;;;;;31.20;12.98;;;;;;;6.16;83.48;100222.88;5093428;28;20426;-45
2023/01/04 06:26:46;;;;;;;21.45;9.32;;;;;;;6.10;84.07;100218.19;5091818;28;20050;-46
2023/01/04 06:29:12;;;;;;;25.60;9.82;;;;;;;6.06;84.47;100223.81;5092092;28;20028;-46
2023/01/04 06:31:37;;;;;;;25.33;13.02;;;;;;;6.12;84.92;100231.09;5093320;28;20452;-46
2023/01/04 06:34:03;;;;;;;27.38;12.23;;;;;;;6.43;85.27;100226.63;5093243;28;20039;-46
2023/01/04 06:36:29;;;;;;;28.48;11.88;;;;;;;6.88;85.64;100233.94;5093216;28;20024;-46
2023/01/04 06:38:58;;;;;;;26.35;12.10;;;;;;;7.11;83.77;100236.25;5093408;28;20162;-46
2023/01/04 06:41:24;;;;;;;27.52;10.13;;;;;;;7.11;82.49;100231.03;5093175;28;20428;-46
2023/01/04 06:43:50;;;;;;;29.45;15.73;;;;;;;7.06;81.83;100235.81;5093040;28;20089;-46
2023/01/04 06:46:15;;;;;;;56.55;33.05;;;;;;;7.43;83.23;100243.75;5091693;28;20028;-47
2023/01/04 06:48:41;;;;;;;35.15;18.17;;;;;;;8.23;83.68;100246.72;5091767;28;20032;-47
2023/01/04 06:51:07;;;;;;;23.38;11.90;;;;;;;8.90;82.05;100255.09;5092776;28;20019;-47
2023/01/04 06:53:32;;;;;;;27.95;12.25;;;;;;;9.34;80.33;100247.25;5092611;28;20020;-47
2023/01/04 06:56:01;;;;;;;26.40;12.63;;;;;;;9.53;79.18;100255.88;5092817;28;20073;-47
2023/01/04 06:58:27;;;;;;;23.27;11.38;;;;;;;9.73;77.63;100259.09;5091529;28;20028;-47
2023/01/04 07:00:54;;;;;;;23.98;11.40;;;;;;;9.69;75.43;100257.78;5091429;28;20498;-47
2023/01/04 07:03:20;;;;;;;26.38;12.85;;;;;;;9.81;75.99;100261.78;5093007;28;20101;-47
2023/01/04 07:05:45;;;;;;;40.58;14.20;;;;;;;9.93;74.59;100264.94;5092596;28;20459;-47
2023/01/04 07:08:12;;;;;;;27.05;14.43;;;;;;;9.79;73.35;100268.97;5091289;28;20027;-47
2023/01/04 07:10:39;;;;;;;165.90;133.13;;;;;;;9.53;73.37;100267.19;5092577;28;20028;-47
2023/01/04 07:13:05;;;;;;;45.95;27.85;;;;;;;9.49;74.04;100265.03;5092586;28;20024;-47
2023/01/04 07:15:31;;;;;;;55.45;26.38;;;;;;;9.48;74.09;100269.44;5092506;28;20035;-47
2023/01/04 07:17:56;;;;;;;70.50;47.70;;;;;;;9.48;74.03;100266.84;5092675;28;20026;-47
2023/01/04 07:20:22;;;;;;;39.47;17.98;;;;;;;9.57;74.37;100262.44;5091147;28;20397;-47
2023/01/04 07:22:48;;;;;;;44.75;16.63;;;;;;;9.53;74.05;100263.75;5092402;28;20020;-47
2023/01/04 07:25:14;;;;;;;81.13;16.65;;;;;;;9.51;73.83;100263.88;5092288;28;20424;-47
2023/01/04 07:27:39;;;;;;;51.00;18.88;;;;;;;9.14;73.26;100251.03;5092048;28;20044;-47
2023/01/04 07:30:05;;;;;;;240.30;20.85;;;;;;;8.74;74.07;100262.81;5092233;28;20390;-47
2023/01/04 07:32:31;;;;;;;39.38;19.25;;;;;;;8.41;75.53;100257.25;5092260;28;20073;-47
2023/01/04 07:34:57;;;;;;;40.42;17.38;;;;;;;8.54;76.51;100252.47;5090866;28;20039;-47
2023/01/04 07:37:23;;;;;;;42.80;18.08;;;;;;;8.66;76.37;100253.06;5090844;28;20024;-47
2023/01/04 07:39:48;;;;;;;32.20;13.30;;;;;;;8.87;75.56;100252.75;5090839;28;20051;-47
2023/01/04 07:42:14;;;;;;;27.95;13.32;;;;;;;8.83;73.80;100259.28;5090850;28;20482;-47
2023/01/04 07:44:40;;;;;;;25.58;11.75;;;;;;;8.61;73.24;100257.91;5090658;28;20517;-47
2023/01/04 07:47:06;;;;;;;24.83;12.18;;;;;;;8.35;73.72;100258.63;5092099;28;20502;-47
2023/01/04 07:49:31;;;;;;;28.10;13.20;;;;;;;8.16;74.51;100259.53;5092071;28;20489;-47
2023/01/04 07:51:57;;;;;;;29.10;11.82;;;;;;;8.05;75.20;100258.91;5090746;28;20478;-47
2023/01/04 07:54:23;;;;;;;24.95;12.13;;;;;;;7.80;76.57;100258.59;5090703;28;20547;-47
2023/01/04 07:56:49;;;;;;;30.23;13.00;;;;;;;7.58;77.61;100263.22;5090604;28;20080;-47
2023/01/04 07:59:17;;;;;;;26.52;12.52;;;;;;;7.45;78.90;100257.50;5107528;28;20031;-47
2023/01/04 08:01:44;;;;;;;28.08;13.23;;;;;;;7.30;80.40;100258.88;5090542;28;20032;-48
2023/01/04 08:04:11;;;;;;;22.30;12.75;;;;;;;7.30;81.41;100272.75;5090898;28;20040;-47
2023/01/04 08:06:39;;;;;;;26.30;13.02;;;;;;;7.50;81.13;100276.16;5091834;28;20024;-47
2023/01/04 08:09:05;;;;;;;31.88;14.43;;;;;;;7.76;81.32;100259.84;5091800;28;20101;-47
2023/01/04 08:11:32;;;;;;;27.38;14.05;;;;;;;7.97;80.03;100265.69;5091772;28;20035;-47
2023/01/04 08:13:57;;;;;;;29.25;13.18;;;;;;;7.94;78.74;100268.59;5091767;28;20050;-47
2023/01/04 08:16:31;;;;;;;22.90;13.88;;;;;;;7.96;79.65;100274.50;5091687;28;20020;-47
2023/01/04 08:19:06;;;;;;;22.98;12.98;;;;;;;7.89;78.09;100272.63;5091716;28;20089;-47
2023/01/04 08:21:33;;;;;;;21.02;13.05;;;;;;;7.71;79.22;100273.38;5090419;28;20177;-47
2023/01/04 08:23:59;;;;;;;19.20;10.55;;;;;;;7.67;79.46;100282.47;5090267;28;20608;-47
2023/01/04 08:26:25;;;;;;;27.88;12.77;;;;;;;7.80;79.18;100292.59;5091396;28;20032;-48
2023/01/04 08:28:51;;;;;;;73.75;16.15;;;;;;;7.88;78.86;100287.47;5091959;28;20032;-47
2023/01/04 08:31:20;;;;;;;91.93;17.02;;;;;;;7.98;79.01;100284.81;5090262;28;20039;-48
2023/01/04 08:33:46;;;;;;;24.15;13.65;;;;;;;7.99;79.21;100279.44;5090516;28;20148;-48
2023/01/04 08:36:17;;;;;;;20.10;9.23;;;;;;;8.05;78.04;100283.28;5090243;28;20024;-48
2023/01/04 08:38:42;;;;;;;22.80;12.02;;;;;;;7.92;77.94;100285.41;5091621;28;20043;-48
2023/01/04 08:41:08;;;;;;;19.05;11.10;;;;;;;7.80;78.41;100288.16;5091521;28;20024;-48
2023/01/04 08:43:37;;;;;;;15.95;10.88;;;;;;;7.70;79.19;100292.59;5091412;28;20038;-47
2023/01/04 08:46:04;;;;;;;14.00;9.45;;;;;;;7.64;79.36;100297.59;5091302;28;20024;-48
2023/01/04 08:48:31;;;;;;;29.17;22.55;;;;;;;7.62;79.74;100282.03;5090113;28;20027;-48
2023/01/04 08:51:03;;;;;;;22.17;15.07;;;;;;;7.70;80.03;100291.78;5091404;28;20120;-47
2023/01/04 08:53:28;;;;;;;18.50;13.43;;;;;;;7.84;80.16;100293.94;5090089;28;20028;-47
2023/01/04 08:55:54;;;;;;;21.48;14.10;;;;;;;7.99;79.75;100286.47;5090012;28;20061;-48
2023/01/04 08:58:22;;;;;;;29.00;13.95;;;;;;;8.27;79.22;100278.63;5090006;28;20532;-48
2023/01/04 09:00:48;;;;;;;18.00;12.57;;;;;;;8.53;78.95;100281.41;5091228;28;20065;-48
2023/01/04 09:03:14;;;;;;;23.17;16.45;;;;;;;8.85;78.14;100278.28;5089992;28;20036;-48
2023/01/04 09:05:39;;;;;;;14.80;12.35;;;;;;;8.97;77.08;100281.50;5089904;28;20023;-48
2023/01/04 09:08:06;;;;;;;20.35;13.90;;;;;;;8.98;76.60;100275.28;5091276;28;20020;-48
2023/01/04 09:10:32;;;;;;;27.33;19.85;;;;;;;8.92;76.02;100279.34;5090215;28;20032;-48
2023/01/04 09:12:58;;;;;;;22.77;18.98;;;;;;;8.80;76.68;100273.50;5091263;28;20028;-48
2023/01/04 09:15:24;;;;;;;19.33;15.07;;;;;;;8.76;77.54;100276.56;5092849;28;20032;-48
2023/01/04 09:17:49;;;;;;;21.92;15.85;;;;;;;8.96;77.54;100274.63;5094690;28;20028;-48
2023/01/04 09:20:15;;;;;;;111.88;20.42;;;;;;;9.28;77.88;100279.31;5093500;28;20020;-48
2023/01/04 09:22:41;;;;;;;70.15;19.80;;;;;;;9.46;78.40;100274.03;5094694;28;20051;-48
2023/01/04 09:25:07;;;;;;;121.15;18.40;;;;;;;9.41;77.09;100273.66;5094613;28;20027;-48
2023/01/04 09:27:33;;;;;;;17.88;14.93;;;;;;;9.15;75.78;100277.06;5094364;28;20044;-48
2023/01/04 09:29:59;;;;;;;68.70;25.35;;;;;;;8.84;75.94;100276.66;5076305;28;20020;-48
2023/01/04 09:32:25;;;;;;;115.55;40.35;;;;;;;8.90;78.09;100278.66;5093503;28;20024;-48
2023/01/04 09:34:51;;;;;;;118.82;29.42;;;;;;;9.27;78.63;100271.59;5094443;28;20032;-48
2023/01/04 09:37:17;;;;;;;168.50;23.27;;;;;;;9.59;76.27;100277.03;5094420;28;20100;-48
2023/01/04 09:39:43;;;;;;;67.35;20.58;;;;;;;9.57;75.21;100270.31;5093049;28;20024;-48
2023/01/04 09:42:29;;;;;;;20.13;17.67;;;;;;;9.13;75.13;100283.44;5092966;28;20024;-48
2023/01/04 09:45:00;;;;;;;24.10;18.25;;;;;;;8.92;76.23;100278.53;5094224;28;20111;-48
2023/01/04 09:48:01;;;;;;;26.23;17.02;;;;;;;8.79;78.08;100290.19;5094187;28;20032;-48
2023/01/04 09:50:33;;;;;;;21.52;15.13;;;;;;;9.12;78.76;100294.91;5080618;28;20416;-48
2023/01/04 09:53:01;;;;;;;23.45;15.32;;;;;;;9.08;77.61;100291.75;5094246;28;20103;-48
2023/01/04 09:55:37;;;;;;;23.65;16.88;;;;;;;8.98;77.55;100294.44;5092734;28;20028;-48
2023/01/04 09:58:28;;;;;;;31.95;16.00;;;;;;;8.96;77.22;100292.94;5092807;28;20429;-48
2023/01/04 10:01:13;;;;;;;53.90;30.42;;;;;;;9.13;77.36;100289.47;5086837;28;20040;-48
2023/01/04 10:04:04;;;;;;;20.80;13.13;;;;;;;9.44;76.01;100294.31;5093851;28;20051;-48
2023/01/04 10:06:31;;;;;;;116.63;18.77;;;;;;;9.72;74.71;100294.19;5093952;28;20246;-48
2023/01/04 10:09:02;;;;;;;25.02;13.85;;;;;;;9.87;74.90;100303.09;5092532;28;20027;-48
2023/01/04 10:11:49;;;;;;;17.85;13.30;;;;;;;9.99;75.25;100298.41;5093885;28;20049;-48
2023/01/04 10:14:44;;;;;;;73.82;16.45;;;;;;;10.83;74.84;100303.81;5093771;28;20473;-48
2023/01/04 10:17:23;;;;;;;22.17;11.60;;;;;;;11.77;71.98;100303.28;5093830;28;20020;-48
2023/01/04 10:19:48;;;;;;;19.70;12.88;;;;;;;12.37;69.47;100307.22;5093611;28;20040;-48
2023/01/04 10:22:40;;;;;;;19.05;12.80;;;;;;;12.67;68.45;100307.34;5093512;28;20034;-48
2023/01/04 10:25:22;;;;;;;17.75;11.57;;;;;;;12.58;67.28;100301.31;5093458;28;20028;-48
2023/01/04 10:28:21;;;;;;;17.40;12.48;;;;;;;12.57;66.74;100298.88;5092421;28;20048;-48
2023/01/04 10:31:13;;;;;;;20.67;13.50;;;;;;;12.27;66.67;100297.88;5092221;28;20032;-48
2023/01/04 10:33:46;;;;;;;20.92;12.50;;;;;;;12.14;67.36;100293.97;5091581;28;20391;-48
2023/01/04 10:36:21;;;;;;;17.52;12.98;;;;;;;11.98;66.83;100299.28;5093262;28;20032;-48
2023/01/04 10:39:05;;;;;;;16.40;12.68;;;;;;;11.87;67.32;100297.00;5093272;28;20097;-48
2023/01/04 10:41:40;;;;;;;18.48;12.77;;;;;;;12.00;67.71;100294.69;5093256;28;20020;-48
2023/01/04 10:44:15;;;;;;;;;;;;;;;12.20;67.78;100295.09;5093542;28;20157;-48
2023/01/04 10:47:01;;;;;;;17.38;13.05;;;;;;;11.95;66.93;100287.31;5093086;28;20370;-48
2023/01/04 10:49:38;;;;;;;18.33;14.30;;;;;;;11.89;67.11;100276.63;5093038;28;20059;-48
2023/01/04 10:52:24;;;;;;;19.95;13.98;;;;;;;11.93;67.46;100280.56;5091864;28;20047;-48
2023/01/04 10:55:10;;;;;;;24.55;12.93;;;;;;;12.31;68.60;100275.47;5091707;28;20047;-48
2023/01/04 10:57:58;;;;;;;19.17;12.07;;;;;;;12.64;66.99;100270.03;5091597;28;20032;-48
2023/01/04 11:00:32;;;;;;;27.23;12.75;;;;;;;12.91;65.83;100261.59;5093095;28;20028;-48
2023/01/04 11:03:16;;;;;;;152.90;18.83;;;;;;;13.00;64.02;100257.09;5092842;28;20036;-47
2023/01/04 11:06:16;;;;;;;27.65;14.77;;;;;;;12.39;65.25;100262.25;5092718;28;20051;-47
2023/01/04 11:08:49;;;;;;;38.25;14.98;;;;;;;11.96;66.18;100257.38;5030204;28;20520;-48
2023/01/04 11:11:24;;;;;;;18.02;12.88;;;;;;;11.48;67.52;100247.78;5030323;28;20038;-48
2023/01/04 11:13:50;;;;;;;123.87;17.83;;;;;;;11.20;67.98;100235.00;5030321;28;20033;-48
2023/01/04 11:16:16;;;;;;;18.45;13.70;;;;;;;10.95;68.57;100239.47;5030231;28;20021;-48
2023/01/04 11:18:45;;;;;;;21.17;13.95;;;;;;;11.08;69.14;100231.06;5030171;28;20046;-48
2023/01/04 11:21:13;;;;;;;14.80;12.75;;;;;;;11.46;68.15;100231.34;5030076;28;20825;-48
2023/01/04 11:23:39;;;;;;;17.38;13.15;;;;;;;11.72;66.77;100218.78;5030033;28;20025;-48
2023/01/04 11:26:12;;;;;;;15.85;13.07;;;;;;;11.96;66.82;100222.34;5029897;28;20562;-48
2023/01/04 11:28:48;;;;;;;18.00;15.70;;;;;;;12.05;65.90;100220.50;5029970;28;20041;-48
2023/01/04 11:31:22;;;;;;;20.35;15.02;;;;;;;11.86;66.86;100213.81;5029990;28;20057;-48
2023/01/04 11:33:57;;;;;;;15.60;12.90;;;;;;;11.89;67.01;100211.69;5013383;28;20033;-48
2023/01/04 11:36:35;;;;;;;17.08;12.27;;;;;;;11.93;67.57;100209.53;5029869;28;20087;-48
2023/01/04 11:39:03;;;;;;;28.48;13.75;;;;;;;12.11;66.73;100204.00;5029786;28;20041;-47
2023/01/04 11:41:28;;;;;;;15.02;12.63;;;;;;;12.02;66.67;100203.25;5013225;28;20207;-48
2023/01/04 11:44:00;;;;;;;16.95;11.70;;;;;;;11.70;66.85;100197.09;5039313;28;20119;-48
2023/01/04 11:46:27;;;;;;;16.98;11.32;;;;;;;11.68;68.56;100206.16;5090746;28;20166;-48
2023/01/04 11:48:54;;;;;;;12.38;11.05;;;;;;;11.89;68.29;100206.44;5091999;28;20027;-48
2023/01/04 11:51:25;;;;;;;13.00;10.40;;;;;;;12.22;67.00;100201.00;5092269;28;20424;-48
2023/01/04 11:54:02;;;;;;;28.85;12.98;;;;;;;13.14;67.43;100203.59;5091960;28;20103;-48
2023/01/04 11:56:32;;;;;;;18.17;10.60;;;;;;;13.46;63.41;100195.53;5091921;28;20028;-48
2023/01/04 11:59:08;;;;;;;144.98;51.72;;;;;;;13.42;64.04;100199.53;5091970;28;20110;-48
2023/01/04 12:01:37;;;;;;;12.20;10.85;;;;;;;13.49;62.86;100203.09;5091946;28;20040;-48
2023/01/04 12:04:10;;;;;;;29.85;18.60;;;;;;;13.52;64.16;100200.09;5091824;28;20027;-48
2023/01/04 12:07:01;;;;;;;19.63;12.50;;;;;;;14.11;63.31;100205.31;5091908;28;20032;-48
2023/01/04 12:09:30;;;;;;;14.50;11.13;;;;;;;14.61;61.61;100204.63;5091888;28;20024;-48
2023/01/04 12:11:59;;;;;;;13.23;10.55;;;;;;;14.89;61.06;100208.13;5090533;28;20024;-48